sensor_id;sensor_type;location;lat;lon;timestamp;P1;durP1;ratioP1;P2;durP2;ratioP2
16304;SDS011;8261;47.678;-122.174;2023-04-01T00:00:31;0.37;;;0.37;;
16304;SDS011;8261;47.678;-122.174;2023-04-01T00:03:06;0.43;;;0.40;;
16304;SDS011;8261;47.678;-122.174;2023-04-01T00:05:37;0.30;;;0.30;;
16304;SDS011;8261;47.678;-122.174;2023-04-01T00:08:09;0.30;;;0.30;;
16304;SDS011;8261;47.678;-122.174;2023-04-01T00:10:41;0.73;;;0.30;;
16304;SDS011;8261;47.678;-122.174;2023-04-01T00:13:13;0.20;;;0.20;;
16304;SDS011;8261;47.678;-122.174;2023-04-01T00:15:49;0.20;;;0.20;;
16304;SDS011;8261;47.678;-122.174;2023-04-01T00:18:23;0.20;;;0.20;;
16304;SDS011;8261;47.678;-122.174;2023-04-01T00:20:56;0.20;;;0.10;;
16304;SDS011;8261;47.678;-122.174;2023-04-01T00:23:28;0.33;;;0.30;;
16304;SDS011;8261;47.678;-122.174;2023-04-01T00:26:00;0.27;;;0.27;;
16304;SDS011;8261;47.678;-122.174;2023-04-01T00:28:31;0.30;;;0.30;;
16304;SDS011;8261;47.678;-122.174;2023-04-01T00:31:09;0.50;;;0.30;;
16304;SDS011;8261;47.678;-122.174;2023-04-01T00:33:41;0.30;;;0.30;;
16304;SDS011;8261;47.678;-122.174;2023-04-01T00:36:13;0.20;;;0.20;;
16304;SDS011;8261;47.678;-122.174;2023-04-01T00:38:47;0.60;;;0.40;;
16304;SDS011;8261;47.678;-122.174;2023-04-01T00:41:19;0.27;;;0.20;;
16304;SDS011;8261;47.678;-122.174;2023-04-01T00:43:51;0.20;;;0.20;;
16304;SDS011;8261;47.678;-122.174;2023-04-01T00:46:25;0.23;;;0.23;;
16304;SDS011;8261;47.678;-122.174;2023-04-01T00:48:56;0.30;;;0.30;;
16304;SDS011;8261;47.678;-122.174;2023-04-01T00:51:29;0.63;;;0.30;;
16304;SDS011;8261;47.678;-122.174;2023-04-01T00:54:03;0.10;;;0.10;;
16304;SDS011;8261;47.678;-122.174;2023-04-01T00:56:36;1.07;;;0.30;;
16304;SDS011;8261;47.678;-122.174;2023-04-01T00:59:11;0.40;;;0.40;;
16304;SDS011;8261;47.678;-122.174;2023-04-01T01:01:50;0.53;;;0.40;;
16304;SDS011;8261;47.678;-122.174;2023-04-01T01:04:23;2.10;;;0.30;;
16304;SDS011;8261;47.678;-122.174;2023-04-01T01:07:05;2.10;;;0.93;;
16304;SDS011;8261;47.678;-122.174;2023-04-01T01:09:46;0.30;;;0.30;;
16304;SDS011;8261;47.678;-122.174;2023-04-01T01:12:23;0.30;;;0.23;;
16304;SDS011;8261;47.678;-122.174;2023-04-01T01:15:02;0.27;;;0.23;;
16304;SDS011;8261;47.678;-122.174;2023-04-01T01:20:42;0.57;;;0.40;;
16304;SDS011;8261;47.678;-122.174;2023-04-01T01:23:45;0.67;;;0.40;;
16304;SDS011;8261;47.678;-122.174;2023-04-01T01:26:33;0.70;;;0.20;;
16304;SDS011;8261;47.678;-122.174;2023-04-01T01:35:44;0.37;;;0.30;;
16304;SDS011;8261;47.678;-122.174;2023-04-01T01:38:21;0.40;;;0.40;;
16304;SDS011;8261;47.678;-122.174;2023-04-01T01:40:54;1.17;;;0.53;;
16304;SDS011;8261;47.678;-122.174;2023-04-01T01:43:29;0.40;;;0.40;;
16304;SDS011;8261;47.678;-122.174;2023-04-01T01:46:05;1.07;;;0.50;;
16304;SDS011;8261;47.678;-122.174;2023-04-01T01:48:40;0.80;;;0.47;;
16304;SDS011;8261;47.678;-122.174;2023-04-01T01:51:16;0.70;;;0.50;;
16304;SDS011;8261;47.678;-122.174;2023-04-01T01:53:48;0.63;;;0.50;;
16304;SDS011;8261;47.678;-122.174;2023-04-01T01:56:19;0.40;;;0.40;;
16304;SDS011;8261;47.678;-122.174;2023-04-01T01:58:54;0.83;;;0.40;;
16304;SDS011;8261;47.678;-122.174;2023-04-01T02:01:31;0.73;;;0.50;;
16304;SDS011;8261;47.678;-122.174;2023-04-01T02:04:05;0.30;;;0.30;;
16304;SDS011;8261;47.678;-122.174;2023-04-01T02:06:43;0.40;;;0.40;;
16304;SDS011;8261;47.678;-122.174;2023-04-01T02:09:20;0.57;;;0.40;;
16304;SDS011;8261;47.678;-122.174;2023-04-01T02:11:55;0.83;;;0.43;;
16304;SDS011;8261;47.678;-122.174;2023-04-01T02:14:29;0.30;;;0.30;;
16304;SDS011;8261;47.678;-122.174;2023-04-01T02:17:10;1.00;;;0.70;;
16304;SDS011;8261;47.678;-122.174;2023-04-01T02:19:46;0.30;;;0.30;;
16304;SDS011;8261;47.678;-122.174;2023-04-01T02:22:23;0.27;;;0.27;;
16304;SDS011;8261;47.678;-122.174;2023-04-01T02:24:57;0.40;;;0.30;;
16304;SDS011;8261;47.678;-122.174;2023-04-01T02:27:32;0.23;;;0.23;;
16304;SDS011;8261;47.678;-122.174;2023-04-01T02:30:05;1.63;;;0.37;;
16304;SDS011;8261;47.678;-122.174;2023-04-01T02:35:20;0.20;;;0.20;;
16304;SDS011;8261;47.678;-122.174;2023-04-01T02:40:40;0.73;;;0.30;;
16304;SDS011;8261;47.678;-122.174;2023-04-01T02:43:13;0.53;;;0.47;;
16304;SDS011;8261;47.678;-122.174;2023-04-01T02:45:45;0.60;;;0.30;;
16304;SDS011;8261;47.678;-122.174;2023-04-01T02:48:17;0.50;;;0.30;;
16304;SDS011;8261;47.678;-122.174;2023-04-01T02:53:48;0.40;;;0.40;;
16304;SDS011;8261;47.678;-122.174;2023-04-01T03:07:10;0.30;;;0.30;;
16304;SDS011;8261;47.678;-122.174;2023-04-01T03:09:44;0.83;;;0.70;;
16304;SDS011;8261;47.678;-122.174;2023-04-01T03:12:20;0.80;;;0.70;;
16304;SDS011;8261;47.678;-122.174;2023-04-01T03:15:13;1.90;;;1.10;;
16304;SDS011;8261;47.678;-122.174;2023-04-01T03:17:45;0.80;;;0.70;;
16304;SDS011;8261;47.678;-122.174;2023-04-01T03:20:17;0.60;;;0.60;;
16304;SDS011;8261;47.678;-122.174;2023-04-01T03:28:15;2.20;;;0.40;;
16304;SDS011;8261;47.678;-122.174;2023-04-01T03:33:24;0.60;;;0.50;;
16304;SDS011;8261;47.678;-122.174;2023-04-01T03:41:14;4.70;;;0.63;;
16304;SDS011;8261;47.678;-122.174;2023-04-01T03:43:47;0.97;;;0.57;;
16304;SDS011;8261;47.678;-122.174;2023-04-01T03:46:30;0.80;;;0.60;;
16304;SDS011;8261;47.678;-122.174;2023-04-01T03:49:02;0.47;;;0.40;;
16304;SDS011;8261;47.678;-122.174;2023-04-01T03:51:39;1.23;;;0.60;;
16304;SDS011;8261;47.678;-122.174;2023-04-01T03:54:12;0.77;;;0.40;;
16304;SDS011;8261;47.678;-122.174;2023-04-01T03:56:45;0.47;;;0.30;;
16304;SDS011;8261;47.678;-122.174;2023-04-01T03:59:17;0.40;;;0.40;;
16304;SDS011;8261;47.678;-122.174;2023-04-01T04:01:49;0.60;;;0.40;;
16304;SDS011;8261;47.678;-122.174;2023-04-01T04:04:21;1.70;;;0.60;;
16304;SDS011;8261;47.678;-122.174;2023-04-01T04:06:54;0.80;;;0.50;;
16304;SDS011;8261;47.678;-122.174;2023-04-01T04:09:29;0.40;;;0.40;;
16304;SDS011;8261;47.678;-122.174;2023-04-01T04:12:04;0.53;;;0.40;;
16304;SDS011;8261;47.678;-122.174;2023-04-01T04:14:37;0.87;;;0.53;;
16304;SDS011;8261;47.678;-122.174;2023-04-01T04:17:09;0.43;;;0.40;;
16304;SDS011;8261;47.678;-122.174;2023-04-01T04:19:43;2.17;;;0.50;;
16304;SDS011;8261;47.678;-122.174;2023-04-01T04:22:14;0.83;;;0.40;;
16304;SDS011;8261;47.678;-122.174;2023-04-01T04:24:46;1.00;;;0.50;;
16304;SDS011;8261;47.678;-122.174;2023-04-01T04:27:20;1.53;;;0.60;;
16304;SDS011;8261;47.678;-122.174;2023-04-01T04:29:52;0.60;;;0.60;;
16304;SDS011;8261;47.678;-122.174;2023-04-01T04:32:23;0.60;;;0.60;;
16304;SDS011;8261;47.678;-122.174;2023-04-01T04:34:56;0.80;;;0.50;;
16304;SDS011;8261;47.678;-122.174;2023-04-01T04:37:28;0.87;;;0.57;;
16304;SDS011;8261;47.678;-122.174;2023-04-01T04:39:59;0.90;;;0.70;;
16304;SDS011;8261;47.678;-122.174;2023-04-01T04:42:33;1.07;;;0.60;;
16304;SDS011;8261;47.678;-122.174;2023-04-01T04:45:06;0.70;;;0.60;;
16304;SDS011;8261;47.678;-122.174;2023-04-01T04:47:39;1.20;;;0.60;;
16304;SDS011;8261;47.678;-122.174;2023-04-01T04:50:11;1.60;;;0.50;;
16304;SDS011;8261;47.678;-122.174;2023-04-01T04:52:45;1.03;;;0.60;;
16304;SDS011;8261;47.678;-122.174;2023-04-01T04:55:17;0.30;;;0.30;;
16304;SDS011;8261;47.678;-122.174;2023-04-01T04:57:52;0.73;;;0.50;;
16304;SDS011;8261;47.678;-122.174;2023-04-01T05:00:24;0.40;;;0.30;;
16304;SDS011;8261;47.678;-122.174;2023-04-01T05:02:56;1.47;;;0.50;;
16304;SDS011;8261;47.678;-122.174;2023-04-01T05:05:28;2.80;;;0.50;;
16304;SDS011;8261;47.678;-122.174;2023-04-01T05:08:01;0.77;;;0.50;;
16304;SDS011;8261;47.678;-122.174;2023-04-01T05:10:32;0.30;;;0.30;;
16304;SDS011;8261;47.678;-122.174;2023-04-01T05:13:07;0.70;;;0.50;;
16304;SDS011;8261;47.678;-122.174;2023-04-01T05:15:39;2.67;;;0.60;;
16304;SDS011;8261;47.678;-122.174;2023-04-01T05:18:11;1.00;;;0.63;;
16304;SDS011;8261;47.678;-122.174;2023-04-01T05:20:47;0.73;;;0.70;;
16304;SDS011;8261;47.678;-122.174;2023-04-01T05:23:19;0.30;;;0.30;;
16304;SDS011;8261;47.678;-122.174;2023-04-01T05:25:52;1.00;;;0.40;;
16304;SDS011;8261;47.678;-122.174;2023-04-01T05:28:27;0.40;;;0.30;;
16304;SDS011;8261;47.678;-122.174;2023-04-01T05:31:00;0.40;;;0.40;;
16304;SDS011;8261;47.678;-122.174;2023-04-01T05:33:32;0.97;;;0.37;;
16304;SDS011;8261;47.678;-122.174;2023-04-01T05:36:08;1.27;;;0.90;;
16304;SDS011;8261;47.678;-122.174;2023-04-01T05:38:41;1.60;;;0.50;;
16304;SDS011;8261;47.678;-122.174;2023-04-01T05:41:14;0.77;;;0.40;;
16304;SDS011;8261;47.678;-122.174;2023-04-01T05:43:47;2.50;;;0.50;;
16304;SDS011;8261;47.678;-122.174;2023-04-01T05:46:19;0.60;;;0.60;;
16304;SDS011;8261;47.678;-122.174;2023-04-01T05:48:51;1.40;;;0.67;;
16304;SDS011;8261;47.678;-122.174;2023-04-01T05:51:23;0.60;;;0.60;;
16304;SDS011;8261;47.678;-122.174;2023-04-01T05:53:54;0.97;;;0.43;;
16304;SDS011;8261;47.678;-122.174;2023-04-01T05:56:26;0.37;;;0.37;;
16304;SDS011;8261;47.678;-122.174;2023-04-01T05:59:00;1.43;;;0.50;;
16304;SDS011;8261;47.678;-122.174;2023-04-01T06:01:32;0.60;;;0.40;;
16304;SDS011;8261;47.678;-122.174;2023-04-01T06:04:03;0.70;;;0.40;;
16304;SDS011;8261;47.678;-122.174;2023-04-01T06:06:35;1.10;;;0.40;;
16304;SDS011;8261;47.678;-122.174;2023-04-01T06:09:07;0.87;;;0.47;;
16304;SDS011;8261;47.678;-122.174;2023-04-01T06:11:50;1.70;;;0.50;;
16304;SDS011;8261;47.678;-122.174;2023-04-01T06:14:40;0.33;;;0.33;;
16304;SDS011;8261;47.678;-122.174;2023-04-01T06:17:24;0.40;;;0.40;;
16304;SDS011;8261;47.678;-122.174;2023-04-01T06:20:04;0.87;;;0.33;;
16304;SDS011;8261;47.678;-122.174;2023-04-01T06:22:46;0.40;;;0.30;;
16304;SDS011;8261;47.678;-122.174;2023-04-01T06:28:29;0.80;;;0.30;;
16304;SDS011;8261;47.678;-122.174;2023-04-01T06:31:30;0.70;;;0.40;;
16304;SDS011;8261;47.678;-122.174;2023-04-01T06:34:27;0.20;;;0.20;;
16304;SDS011;8261;47.678;-122.174;2023-04-01T06:37:22;0.40;;;0.33;;
16304;SDS011;8261;47.678;-122.174;2023-04-01T06:40:36;0.60;;;0.40;;
16304;SDS011;8261;47.678;-122.174;2023-04-01T06:43:21;0.40;;;0.40;;
16304;SDS011;8261;47.678;-122.174;2023-04-01T06:46:01;0.63;;;0.50;;
16304;SDS011;8261;47.678;-122.174;2023-04-01T06:48:44;0.40;;;0.40;;
16304;SDS011;8261;47.678;-122.174;2023-04-01T06:51:28;0.50;;;0.50;;
16304;SDS011;8261;47.678;-122.174;2023-04-01T06:54:07;0.50;;;0.50;;
16304;SDS011;8261;47.678;-122.174;2023-04-01T06:56:43;0.70;;;0.70;;
16304;SDS011;8261;47.678;-122.174;2023-04-01T06:59:18;0.60;;;0.60;;
16304;SDS011;8261;47.678;-122.174;2023-04-01T07:01:53;1.03;;;0.60;;
16304;SDS011;8261;47.678;-122.174;2023-04-01T07:04:31;0.53;;;0.53;;
16304;SDS011;8261;47.678;-122.174;2023-04-01T07:07:08;0.80;;;0.70;;
16304;SDS011;8261;47.678;-122.174;2023-04-01T07:09:48;2.23;;;0.77;;
16304;SDS011;8261;47.678;-122.174;2023-04-01T07:12:24;1.00;;;0.70;;
16304;SDS011;8261;47.678;-122.174;2023-04-01T07:15:05;0.60;;;0.50;;
16304;SDS011;8261;47.678;-122.174;2023-04-01T07:17:46;0.73;;;0.60;;
16304;SDS011;8261;47.678;-122.174;2023-04-01T07:20:27;0.60;;;0.50;;
16304;SDS011;8261;47.678;-122.174;2023-04-01T07:23:01;0.83;;;0.50;;
16304;SDS011;8261;47.678;-122.174;2023-04-01T07:25:35;0.40;;;0.40;;
16304;SDS011;8261;47.678;-122.174;2023-04-01T07:28:12;0.40;;;0.30;;
16304;SDS011;8261;47.678;-122.174;2023-04-01T07:30:48;0.50;;;0.40;;
16304;SDS011;8261;47.678;-122.174;2023-04-01T07:33:29;0.30;;;0.30;;
16304;SDS011;8261;47.678;-122.174;2023-04-01T07:36:10;0.50;;;0.40;;
16304;SDS011;8261;47.678;-122.174;2023-04-01T07:38:54;0.40;;;0.30;;
16304;SDS011;8261;47.678;-122.174;2023-04-01T07:41:37;1.17;;;0.67;;
16304;SDS011;8261;47.678;-122.174;2023-04-01T07:44:17;1.67;;;0.27;;
16304;SDS011;8261;47.678;-122.174;2023-04-01T07:46:58;1.87;;;0.60;;
16304;SDS011;8261;47.678;-122.174;2023-04-01T07:49:45;0.87;;;0.53;;
16304;SDS011;8261;47.678;-122.174;2023-04-01T07:52:31;1.10;;;0.27;;
16304;SDS011;8261;47.678;-122.174;2023-04-01T07:55:13;0.47;;;0.30;;
16304;SDS011;8261;47.678;-122.174;2023-04-01T07:57:49;1.73;;;0.40;;
16304;SDS011;8261;47.678;-122.174;2023-04-01T08:00:30;3.90;;;0.60;;
16304;SDS011;8261;47.678;-122.174;2023-04-01T08:03:11;3.20;;;0.63;;
16304;SDS011;8261;47.678;-122.174;2023-04-01T08:05:59;2.63;;;0.67;;
16304;SDS011;8261;47.678;-122.174;2023-04-01T08:08:40;0.87;;;0.53;;
16304;SDS011;8261;47.678;-122.174;2023-04-01T08:11:23;3.03;;;0.77;;
16304;SDS011;8261;47.678;-122.174;2023-04-01T08:14:09;2.63;;;0.77;;
16304;SDS011;8261;47.678;-122.174;2023-04-01T08:16:51;3.20;;;0.63;;
16304;SDS011;8261;47.678;-122.174;2023-04-01T08:19:31;5.90;;;0.70;;
16304;SDS011;8261;47.678;-122.174;2023-04-01T08:22:14;1.93;;;0.40;;
16304;SDS011;8261;47.678;-122.174;2023-04-01T08:24:54;2.50;;;0.70;;
16304;SDS011;8261;47.678;-122.174;2023-04-01T08:27:32;4.50;;;0.70;;
16304;SDS011;8261;47.678;-122.174;2023-04-01T08:30:15;2.83;;;0.80;;
16304;SDS011;8261;47.678;-122.174;2023-04-01T08:32:50;1.67;;;0.70;;
16304;SDS011;8261;47.678;-122.174;2023-04-01T08:35:27;5.17;;;0.80;;
16304;SDS011;8261;47.678;-122.174;2023-04-01T08:38:05;3.77;;;0.60;;
16304;SDS011;8261;47.678;-122.174;2023-04-01T08:43:59;7.17;;;1.10;;
16304;SDS011;8261;47.678;-122.174;2023-04-01T08:46:52;4.07;;;0.73;;
16304;SDS011;8261;47.678;-122.174;2023-04-01T08:49:57;4.10;;;0.90;;
16304;SDS011;8261;47.678;-122.174;2023-04-01T08:52:50;3.50;;;0.77;;
16304;SDS011;8261;47.678;-122.174;2023-04-01T08:55:36;2.60;;;0.80;;
16304;SDS011;8261;47.678;-122.174;2023-04-01T08:58:22;5.23;;;1.07;;
16304;SDS011;8261;47.678;-122.174;2023-04-01T09:01:13;4.60;;;1.37;;
16304;SDS011;8261;47.678;-122.174;2023-04-01T09:04:05;2.37;;;0.80;;
16304;SDS011;8261;47.678;-122.174;2023-04-01T09:06:55;2.43;;;0.67;;
16304;SDS011;8261;47.678;-122.174;2023-04-01T09:12:51;3.67;;;0.90;;
16304;SDS011;8261;47.678;-122.174;2023-04-01T09:21:34;10.33;;;1.30;;
16304;SDS011;8261;47.678;-122.174;2023-04-01T09:27:26;2.83;;;0.97;;
16304;SDS011;8261;47.678;-122.174;2023-04-01T09:33:13;5.77;;;1.47;;
16304;SDS011;8261;47.678;-122.174;2023-04-01T09:36:07;7.03;;;1.33;;
16304;SDS011;8261;47.678;-122.174;2023-04-01T09:38:54;6.33;;;1.40;;
16304;SDS011;8261;47.678;-122.174;2023-04-01T09:41:29;6.63;;;1.53;;
16304;SDS011;8261;47.678;-122.174;2023-04-01T09:44:03;5.60;;;1.60;;
16304;SDS011;8261;47.678;-122.174;2023-04-01T09:46:48;6.30;;;1.40;;
16304;SDS011;8261;47.678;-122.174;2023-04-01T09:52:38;3.63;;;1.20;;
16304;SDS011;8261;47.678;-122.174;2023-04-01T09:58:46;5.97;;;1.40;;
16304;SDS011;8261;47.678;-122.174;2023-04-01T10:01:52;4.93;;;1.43;;
16304;SDS011;8261;47.678;-122.174;2023-04-01T10:11:19;7.17;;;1.00;;
16304;SDS011;8261;47.678;-122.174;2023-04-01T10:17:09;6.17;;;1.30;;
16304;SDS011;8261;47.678;-122.174;2023-04-01T10:20:22;5.37;;;1.20;;
16304;SDS011;8261;47.678;-122.174;2023-04-01T10:23:21;4.97;;;1.50;;
16304;SDS011;8261;47.678;-122.174;2023-04-01T10:35:41;4.80;;;1.37;;
16304;SDS011;8261;47.678;-122.174;2023-04-01T10:41:56;5.47;;;1.33;;
16304;SDS011;8261;47.678;-122.174;2023-04-01T10:48:07;8.17;;;1.70;;
16304;SDS011;8261;47.678;-122.174;2023-04-01T10:50:53;6.07;;;1.43;;
16304;SDS011;8261;47.678;-122.174;2023-04-01T10:53:49;7.07;;;1.23;;
16304;SDS011;8261;47.678;-122.174;2023-04-01T10:56:45;5.03;;;1.17;;
16304;SDS011;8261;47.678;-122.174;2023-04-01T11:12:21;10.10;;;1.53;;
16304;SDS011;8261;47.678;-122.174;2023-04-01T11:15:30;3.10;;;1.43;;
16304;SDS011;8261;47.678;-122.174;2023-04-01T11:18:38;7.73;;;1.43;;
16304;SDS011;8261;47.678;-122.174;2023-04-01T11:21:47;7.40;;;1.17;;
16304;SDS011;8261;47.678;-122.174;2023-04-01T11:24:51;5.00;;;1.30;;
16304;SDS011;8261;47.678;-122.174;2023-04-01T11:30:56;8.10;;;1.90;;
16304;SDS011;8261;47.678;-122.174;2023-04-01T11:33:43;14.47;;;1.90;;
16304;SDS011;8261;47.678;-122.174;2023-04-01T11:36:23;10.80;;;2.00;;
16304;SDS011;8261;47.678;-122.174;2023-04-01T11:39:11;10.53;;;1.97;;
16304;SDS011;8261;47.678;-122.174;2023-04-01T11:41:55;7.17;;;1.70;;
16304;SDS011;8261;47.678;-122.174;2023-04-01T11:44:36;7.47;;;1.87;;
16304;SDS011;8261;47.678;-122.174;2023-04-01T11:47:20;10.43;;;1.90;;
16304;SDS011;8261;47.678;-122.174;2023-04-01T11:50:20;7.37;;;1.60;;
16304;SDS011;8261;47.678;-122.174;2023-04-01T11:53:01;5.17;;;1.77;;
16304;SDS011;8261;47.678;-122.174;2023-04-01T11:55:50;6.27;;;1.57;;
16304;SDS011;8261;47.678;-122.174;2023-04-01T12:01:42;8.13;;;2.20;;
16304;SDS011;8261;47.678;-122.174;2023-04-01T12:04:27;8.00;;;1.50;;
16304;SDS011;8261;47.678;-122.174;2023-04-01T12:07:40;3.90;;;1.50;;
16304;SDS011;8261;47.678;-122.174;2023-04-01T12:10:26;9.57;;;1.77;;
16304;SDS011;8261;47.678;-122.174;2023-04-01T12:13:07;3.30;;;1.07;;
16304;SDS011;8261;47.678;-122.174;2023-04-01T12:15:54;5.23;;;1.20;;
16304;SDS011;8261;47.678;-122.174;2023-04-01T12:18:38;3.90;;;1.13;;
16304;SDS011;8261;47.678;-122.174;2023-04-01T12:21:17;2.20;;;1.20;;
16304;SDS011;8261;47.678;-122.174;2023-04-01T12:27:11;3.53;;;1.00;;
16304;SDS011;8261;47.678;-122.174;2023-04-01T12:33:14;3.80;;;1.20;;
16304;SDS011;8261;47.678;-122.174;2023-04-01T12:36:11;5.77;;;1.10;;
16304;SDS011;8261;47.678;-122.174;2023-04-01T12:38:51;4.60;;;0.90;;
16304;SDS011;8261;47.678;-122.174;2023-04-01T12:41:39;3.30;;;1.00;;
16304;SDS011;8261;47.678;-122.174;2023-04-01T12:44:36;4.60;;;1.20;;
16304;SDS011;8261;47.678;-122.174;2023-04-01T12:53:31;5.60;;;1.40;;
16304;SDS011;8261;47.678;-122.174;2023-04-01T12:56:14;3.73;;;1.23;;
16304;SDS011;8261;47.678;-122.174;2023-04-01T12:58:56;3.30;;;1.20;;
16304;SDS011;8261;47.678;-122.174;2023-04-01T13:01:59;3.77;;;1.33;;
16304;SDS011;8261;47.678;-122.174;2023-04-01T13:04:45;5.10;;;1.40;;
16304;SDS011;8261;47.678;-122.174;2023-04-01T13:10:44;2.90;;;1.23;;
16304;SDS011;8261;47.678;-122.174;2023-04-01T13:13:50;5.23;;;1.27;;
16304;SDS011;8261;47.678;-122.174;2023-04-01T13:16:48;6.07;;;1.20;;
16304;SDS011;8261;47.678;-122.174;2023-04-01T13:19:25;3.90;;;1.13;;
16304;SDS011;8261;47.678;-122.174;2023-04-01T13:22:06;4.73;;;1.17;;
16304;SDS011;8261;47.678;-122.174;2023-04-01T13:24:49;4.70;;;1.47;;
16304;SDS011;8261;47.678;-122.174;2023-04-01T13:27:29;3.70;;;1.10;;
16304;SDS011;8261;47.678;-122.174;2023-04-01T13:30:16;5.93;;;1.00;;
16304;SDS011;8261;47.678;-122.174;2023-04-01T13:32:56;6.17;;;1.93;;
16304;SDS011;8261;47.678;-122.174;2023-04-01T13:35:38;4.17;;;1.17;;
16304;SDS011;8261;47.678;-122.174;2023-04-01T13:41:21;6.60;;;1.80;;
16304;SDS011;8261;47.678;-122.174;2023-04-01T13:44:00;5.87;;;1.17;;
16304;SDS011;8261;47.678;-122.174;2023-04-01T13:46:49;5.60;;;1.30;;
16304;SDS011;8261;47.678;-122.174;2023-04-01T13:49:51;3.70;;;1.10;;
16304;SDS011;8261;47.678;-122.174;2023-04-01T13:52:46;6.07;;;1.23;;
16304;SDS011;8261;47.678;-122.174;2023-04-01T13:55:39;2.63;;;1.20;;
16304;SDS011;8261;47.678;-122.174;2023-04-01T13:58:29;3.70;;;1.73;;
16304;SDS011;8261;47.678;-122.174;2023-04-01T14:01:29;4.70;;;1.10;;
16304;SDS011;8261;47.678;-122.174;2023-04-01T14:04:10;2.87;;;1.10;;
16304;SDS011;8261;47.678;-122.174;2023-04-01T14:07:01;3.37;;;1.20;;
16304;SDS011;8261;47.678;-122.174;2023-04-01T14:12:46;3.30;;;1.53;;
16304;SDS011;8261;47.678;-122.174;2023-04-01T14:21:43;4.33;;;0.90;;
16304;SDS011;8261;47.678;-122.174;2023-04-01T14:24:27;3.00;;;0.97;;
16304;SDS011;8261;47.678;-122.174;2023-04-01T14:27:17;3.63;;;1.23;;
16304;SDS011;8261;47.678;-122.174;2023-04-01T14:30:14;5.40;;;1.20;;
16304;SDS011;8261;47.678;-122.174;2023-04-01T14:33:02;3.83;;;1.10;;
16304;SDS011;8261;47.678;-122.174;2023-04-01T14:35:54;5.53;;;1.53;;
16304;SDS011;8261;47.678;-122.174;2023-04-01T14:38:51;5.60;;;1.47;;
16304;SDS011;8261;47.678;-122.174;2023-04-01T14:41:35;5.60;;;0.97;;
16304;SDS011;8261;47.678;-122.174;2023-04-01T14:44:18;3.43;;;0.93;;
16304;SDS011;8261;47.678;-122.174;2023-04-01T14:47:34;4.43;;;1.00;;
16304;SDS011;8261;47.678;-122.174;2023-04-01T14:50:16;5.20;;;0.93;;
16304;SDS011;8261;47.678;-122.174;2023-04-01T14:53:11;2.23;;;1.10;;
16304;SDS011;8261;47.678;-122.174;2023-04-01T14:55:55;3.43;;;1.17;;
16304;SDS011;8261;47.678;-122.174;2023-04-01T14:58:38;2.73;;;0.87;;
16304;SDS011;8261;47.678;-122.174;2023-04-01T15:01:21;2.50;;;1.20;;
16304;SDS011;8261;47.678;-122.174;2023-04-01T15:04:19;5.33;;;0.90;;
16304;SDS011;8261;47.678;-122.174;2023-04-01T15:07:23;4.27;;;1.50;;
16304;SDS011;8261;47.678;-122.174;2023-04-01T15:10:21;3.17;;;0.90;;
16304;SDS011;8261;47.678;-122.174;2023-04-01T15:13:12;1.57;;;0.90;;
16304;SDS011;8261;47.678;-122.174;2023-04-01T15:15:53;3.77;;;1.50;;
16304;SDS011;8261;47.678;-122.174;2023-04-01T15:18:33;2.37;;;0.77;;
16304;SDS011;8261;47.678;-122.174;2023-04-01T15:21:15;1.70;;;1.03;;
16304;SDS011;8261;47.678;-122.174;2023-04-01T15:23:56;4.40;;;0.90;;
16304;SDS011;8261;47.678;-122.174;2023-04-01T15:29:50;3.37;;;0.80;;
16304;SDS011;8261;47.678;-122.174;2023-04-01T15:32:46;2.30;;;0.90;;
16304;SDS011;8261;47.678;-122.174;2023-04-01T15:35:32;2.27;;;1.40;;
16304;SDS011;8261;47.678;-122.174;2023-04-01T15:38:11;1.97;;;1.10;;
16304;SDS011;8261;47.678;-122.174;2023-04-01T15:40:57;3.33;;;1.00;;
16304;SDS011;8261;47.678;-122.174;2023-04-01T15:43:40;5.73;;;1.00;;
16304;SDS011;8261;47.678;-122.174;2023-04-01T15:46:40;1.73;;;1.13;;
16304;SDS011;8261;47.678;-122.174;2023-04-01T15:49:18;2.37;;;1.10;;
16304;SDS011;8261;47.678;-122.174;2023-04-01T15:51:59;3.90;;;1.40;;
16304;SDS011;8261;47.678;-122.174;2023-04-01T15:54:49;1.23;;;0.80;;
16304;SDS011;8261;47.678;-122.174;2023-04-01T15:57:48;1.73;;;1.03;;
16304;SDS011;8261;47.678;-122.174;2023-04-01T16:00:32;2.87;;;1.27;;
16304;SDS011;8261;47.678;-122.174;2023-04-01T16:03:28;1.73;;;1.17;;
16304;SDS011;8261;47.678;-122.174;2023-04-01T16:06:23;3.43;;;1.37;;
16304;SDS011;8261;47.678;-122.174;2023-04-01T16:09:07;2.77;;;1.10;;
16304;SDS011;8261;47.678;-122.174;2023-04-01T16:11:53;4.77;;;0.80;;
16304;SDS011;8261;47.678;-122.174;2023-04-01T16:14:30;2.73;;;1.13;;
16304;SDS011;8261;47.678;-122.174;2023-04-01T16:17:17;3.30;;;1.20;;
16304;SDS011;8261;47.678;-122.174;2023-04-01T16:20:34;3.30;;;0.90;;
16304;SDS011;8261;47.678;-122.174;2023-04-01T16:23:18;3.37;;;0.80;;
16304;SDS011;8261;47.678;-122.174;2023-04-01T16:25:59;2.13;;;0.70;;
16304;SDS011;8261;47.678;-122.174;2023-04-01T16:28:38;2.40;;;0.93;;
16304;SDS011;8261;47.678;-122.174;2023-04-01T16:31:25;1.03;;;0.57;;
16304;SDS011;8261;47.678;-122.174;2023-04-01T16:34:04;1.50;;;0.50;;
16304;SDS011;8261;47.678;-122.174;2023-04-01T16:36:47;1.63;;;0.60;;
16304;SDS011;8261;47.678;-122.174;2023-04-01T16:39:29;2.47;;;0.60;;
16304;SDS011;8261;47.678;-122.174;2023-04-01T16:42:11;2.00;;;0.60;;
16304;SDS011;8261;47.678;-122.174;2023-04-01T16:44:59;1.53;;;0.50;;
16304;SDS011;8261;47.678;-122.174;2023-04-01T16:47:34;1.13;;;0.53;;
16304;SDS011;8261;47.678;-122.174;2023-04-01T16:50:13;3.03;;;0.80;;
16304;SDS011;8261;47.678;-122.174;2023-04-01T16:52:59;1.33;;;0.50;;
16304;SDS011;8261;47.678;-122.174;2023-04-01T16:55:43;3.30;;;0.53;;
16304;SDS011;8261;47.678;-122.174;2023-04-01T16:58:22;2.03;;;0.90;;
16304;SDS011;8261;47.678;-122.174;2023-04-01T17:00:58;1.63;;;0.60;;
16304;SDS011;8261;47.678;-122.174;2023-04-01T17:03:36;1.20;;;0.53;;
16304;SDS011;8261;47.678;-122.174;2023-04-01T17:06:17;0.97;;;0.40;;
16304;SDS011;8261;47.678;-122.174;2023-04-01T17:09:16;2.63;;;0.70;;
16304;SDS011;8261;47.678;-122.174;2023-04-01T17:11:56;2.27;;;0.70;;
16304;SDS011;8261;47.678;-122.174;2023-04-01T17:14:33;2.33;;;0.60;;
16304;SDS011;8261;47.678;-122.174;2023-04-01T17:17:15;2.63;;;0.60;;
16304;SDS011;8261;47.678;-122.174;2023-04-01T17:20:01;1.17;;;0.50;;
16304;SDS011;8261;47.678;-122.174;2023-04-01T17:23:07;0.97;;;0.47;;
16304;SDS011;8261;47.678;-122.174;2023-04-01T17:28:47;0.90;;;0.60;;
16304;SDS011;8261;47.678;-122.174;2023-04-01T17:31:39;0.83;;;0.40;;
16304;SDS011;8261;47.678;-122.174;2023-04-01T17:34:18;2.33;;;0.83;;
16304;SDS011;8261;47.678;-122.174;2023-04-01T17:37:09;1.63;;;0.80;;
16304;SDS011;8261;47.678;-122.174;2023-04-01T17:40:00;2.80;;;0.77;;
16304;SDS011;8261;47.678;-122.174;2023-04-01T17:42:50;0.83;;;0.70;;
16304;SDS011;8261;47.678;-122.174;2023-04-01T17:45:30;1.13;;;0.57;;
16304;SDS011;8261;47.678;-122.174;2023-04-01T17:48:18;1.90;;;0.90;;
16304;SDS011;8261;47.678;-122.174;2023-04-01T17:51:01;1.23;;;0.60;;
16304;SDS011;8261;47.678;-122.174;2023-04-01T17:53:49;0.80;;;0.50;;
16304;SDS011;8261;47.678;-122.174;2023-04-01T17:56:33;0.70;;;0.43;;
16304;SDS011;8261;47.678;-122.174;2023-04-01T17:59:17;1.53;;;0.47;;
16304;SDS011;8261;47.678;-122.174;2023-04-01T18:01:59;1.30;;;0.53;;
16304;SDS011;8261;47.678;-122.174;2023-04-01T18:07:48;1.47;;;0.60;;
16304;SDS011;8261;47.678;-122.174;2023-04-01T18:10:35;2.60;;;1.07;;
16304;SDS011;8261;47.678;-122.174;2023-04-01T18:16:24;3.83;;;1.23;;
16304;SDS011;8261;47.678;-122.174;2023-04-01T18:19:05;1.23;;;0.80;;
16304;SDS011;8261;47.678;-122.174;2023-04-01T18:21:43;0.60;;;0.33;;